Time;durP1;ratioP1;P1;durP2;ratioP2;P2;SDS_P1;SDS_P2;PMS_P1;PMS_P2;Temp;Humidity;BMP_temperature;BMP_pressure;BME280_temperature;BME280_humidity;BME280_pressure;Samples;Min_cycle;Max_cycle;Signal;HPM_P1;HPM_P2
2021/04/23 00:01:42;;;;;;;68.72;38.45;;;333.60;2022.40;;;;;;5094245;28;20038;-79
2021/04/23 00:04:08;;;;;;;53.75;34.20;;;333.70;1996.80;;;;;;5092657;28;20028;-78
2021/04/23 00:06:40;;;;;;;33.97;25.80;;;333.70;1996.80;;;;;;5092426;28;20028;-78
2021/04/23 00:09:11;;;;;;;38.85;26.70;;;333.70;1996.80;;;;;;5093989;28;20492;-78
2021/04/23 00:11:45;;;;;;;28.80;24.13;;;333.70;1996.80;;;;;;5092086;28;20588;-79
2021/04/23 00:14:13;;;;;;;27.10;21.92;;;333.70;2022.40;;;;;;5092603;28;20048;-78
2021/04/23 00:16:39;;;;;;;28.30;23.70;;;333.70;2022.40;;;;;;5091787;28;20485;-78
2021/04/23 00:19:10;;;;;;;26.38;22.85;;;333.70;2022.40;;;;;;5091568;28;20038;-78
2021/04/23 00:21:37;;;;;;;30.75;24.10;;;333.70;1996.80;;;;;;5092414;28;20039;-79
2021/04/23 00:24:03;;;;;;;29.33;25.35;;;333.70;2022.40;;;;;;5093768;28;20477;-78
2021/04/23 00:26:29;;;;;;;28.63;24.33;;;333.70;2048.00;;;;;;5092449;28;20035;-78
2021/04/23 00:28:55;;;;;;;27.05;24.20;;;333.60;2048.00;;;;;;5092170;28;20024;-78
2021/04/23 00:31:39;;;;;;;29.33;24.27;;;333.60;2048.00;;;;;;5093367;28;20024;-79
2021/04/23 00:34:05;;;;;;;28.25;23.88;;;333.60;2048.00;;;;;;5092584;28;20020;-79
2021/04/23 00:36:31;;;;;;;29.02;23.67;;;333.50;2073.60;;;;;;5092122;28;20076;-78
2021/04/23 00:38:57;;;;;;;31.02;25.55;;;333.50;2073.60;;;;;;5091849;28;20036;-79
2021/04/23 00:41:28;;;;;;;32.58;25.30;;;333.50;2048.00;;;;;;5092183;28;20031;-78
2021/04/23 00:43:57;;;;;;;33.72;26.08;;;333.50;2048.00;;;;;;5093540;28;20020;-78
2021/04/23 00:46:34;;;;;;;31.90;24.33;;;333.50;2048.00;;;;;;5092314;28;20055;-77
2021/04/23 00:49:01;;;;;;;31.00;25.30;;;333.50;2022.40;;;;;;5092192;28;20120;-77
2021/04/23 00:51:32;;;;;;;26.98;23.90;;;333.60;2048.00;;;;;;5092159;28;20412;-80
2021/04/23 00:54:00;;;;;;;29.60;23.00;;;333.60;2022.40;;;;;;5093017;28;20115;-78
2021/04/23 00:56:31;;;;;;;29.95;24.58;;;333.60;1996.80;;;;;;5091193;28;20052;-78
2021/04/23 00:58:58;;;;;;;27.38;22.92;;;333.60;1996.80;;;;;;5091745;28;20046;-79
2021/04/23 01:01:34;;;;;;;28.98;21.42;;;333.60;1971.20;;;;;;5092136;28;20020;-78
2021/04/23 01:04:00;;;;;;;28.00;20.88;;;333.70;1971.20;;;;;;5093415;28;20024;-78
2021/04/23 01:06:30;;;;;;;22.10;19.23;;;333.60;1971.20;;;;;;5093363;28;20085;-78
2021/04/23 01:08:58;;;;;;;23.55;19.65;;;333.60;1971.20;;;;;;5092117;28;20056;-78
2021/04/23 01:11:26;;;;;;;24.35;19.05;;;333.50;1945.60;;;;;;5093076;28;20028;-79
2021/04/23 01:13:53;;;;;;;24.08;19.15;;;333.50;1945.60;;;;;;5091941;28;20032;-79
2021/04/23 01:16:22;;;;;;;24.70;18.55;;;333.50;1945.60;;;;;;5092095;28;20042;-79
2021/04/23 01:18:50;;;;;;;20.45;16.75;;;333.50;1920.00;;;;;;5075553;28;20020;-78
2021/04/23 01:21:19;;;;;;;23.30;17.40;;;333.50;1894.40;;;;;;5093259;28;20020;-79
2021/04/23 01:23:47;;;;;;;23.13;16.48;;;333.50;1868.80;;;;;;5091886;28;20043;-78
2021/04/23 01:26:14;;;;;;;19.48;15.18;;;333.50;1868.80;;;;;;5091990;28;20023;-78
2021/04/23 01:28:41;;;;;;;17.55;14.48;;;333.40;1868.80;;;;;;5092851;28;20016;-78
2021/04/23 01:31:09;;;;;;;18.02;15.52;;;333.40;1868.80;;;;;;5095093;28;20107;-78
2021/04/23 01:33:37;;;;;;;17.45;15.57;;;333.40;1920.00;;;;;;5096472;28;20549;-78
2021/04/23 01:36:04;;;;;;;24.33;15.02;;;333.30;1920.00;;;;;;5095555;28;20028;-78
2021/04/23 01:38:30;;;;;;;22.48;16.05;;;333.30;1920.00;;;;;;5094966;28;20034;-77
2021/04/23 01:40:56;;;;;;;26.67;17.08;;;333.30;1920.00;;;;;;5095385;28;20024;-78
2021/04/23 01:43:22;;;;;;;21.83;17.35;;;333.30;1868.80;;;;;;5096988;28;20054;-78
2021/04/23 01:45:48;;;;;;;22.73;18.15;;;333.30;1868.80;;;;;;5094972;28;20047;-77
2021/04/23 01:48:16;;;;;;;19.98;17.75;;;333.30;1843.20;;;;;;5098628;28;20034;-78
2021/04/23 01:50:43;;;;;;;20.35;16.27;;;333.30;1868.80;;;;;;5101215;28;20040;-78
2021/04/23 01:53:10;;;;;;;23.10;16.17;;;333.40;1843.20;;;;;;5096348;28;20024;-78
2021/04/23 01:55:36;;;;;;;23.75;16.92;;;333.30;1843.20;;;;;;5096432;28;20016;-79
2021/04/23 01:58:03;;;;;;;27.35;16.38;;;333.30;1843.20;;;;;;5096413;28;20044;-79
2021/04/23 02:00:56;;;;;;;19.52;16.35;;;333.30;1843.20;;;;;;5095118;28;20065;-79
2021/04/23 02:03:23;;;;;;;21.10;15.77;;;333.40;1843.20;;;;;;5091600;28;20032;-78
2021/04/23 02:05:51;;;;;;;20.80;16.58;;;333.40;1843.20;;;;;;5096146;28;20012;-78
2021/04/23 02:08:23;;;;;;;24.73;17.40;;;333.30;1843.20;;;;;;5094844;28;20024;-78
2021/04/23 02:11:04;;;;;;;25.17;18.17;;;333.40;1843.20;;;;;;5094741;28;20486;-79
2021/04/23 02:13:30;;;;;;;18.40;15.80;;;333.30;1843.20;;;;;;5094851;28;20032;-79
2021/04/23 02:15:57;;;;;;;21.60;16.98;;;333.30;1843.20;;;;;;5094959;28;20501;-79
2021/04/23 02:18:25;;;;;;;27.70;18.48;;;333.30;1843.20;;;;;;5095977;28;20035;-78
2021/04/23 02:20:53;;;;;;;19.17;15.80;;;333.30;1843.20;;;;;;5095313;28;20028;-77
2021/04/23 02:23:20;;;;;;;23.25;15.80;;;333.30;1843.20;;;;;;5094384;28;20036;-78
2021/04/23 02:25:51;;;;;;;23.25;15.43;;;333.30;1843.20;;;;;;5094129;28;20028;-78
2021/04/23 02:28:17;;;;;;;19.75;16.70;;;333.30;1817.60;;;;;;5077723;28;20051;-78
2021/04/23 02:30:57;;;;;;;20.58;15.85;;;333.30;1817.60;;;;;;5095891;28;20031;-78
2021/04/23 02:33:24;;;;;;;19.38;15.05;;;333.30;1792.00;;;;;;5094123;28;20492;-79
2021/04/23 02:35:52;;;;;;;22.73;17.27;;;333.30;1792.00;;;;;;5096073;28;20032;-78
2021/04/23 02:38:19;;;;;;;24.80;16.13;;;333.30;1817.60;;;;;;5095558;28;20093;-80
2021/04/23 02:40:46;;;;;;;20.70;17.98;;;333.30;1817.60;;;;;;5094344;28;20016;-79
2021/04/23 02:43:15;;;;;;;22.55;16.90;;;333.30;1817.60;;;;;;5093540;28;20505;-78
2021/04/23 02:45:42;;;;;;;27.03;17.07;;;333.30;1792.00;;;;;;5094099;28;20125;-79
2021/04/23 02:48:11;;;;;;;27.73;17.92;;;333.30;1792.00;;;;;;5095033;28;20028;-80
2021/04/23 02:50:38;;;;;;;23.42;17.55;;;333.30;1792.00;;;;;;5095508;28;20039;-78
2021/04/23 02:53:06;;;;;;;20.15;15.13;;;333.30;1792.00;;;;;;5095496;28;20384;-79
2021/04/23 02:55:32;;;;;;;21.13;14.45;;;333.30;1766.40;;;;;;5093978;28;20424;-78
2021/04/23 02:58:10;;;;;;;28.25;17.25;;;333.30;1740.80;;;;;;5093900;28;20408;-78
2021/04/23 03:00:39;;;;;;;24.90;17.92;;;333.20;1715.20;;;;;;5095760;28;20055;-78
2021/04/23 03:03:07;;;;;;;21.45;15.95;;;333.30;1740.80;;;;;;5094302;28;20058;-78
2021/04/23 03:05:33;;;;;;;22.33;13.98;;;333.20;1740.80;;;;;;5093814;28;20107;-78
2021/04/23 03:08:00;;;;;;;20.08;13.80;;;333.20;1715.20;;;;;;5093426;28;20028;-78
2021/04/23 03:10:32;;;;;;;22.95;13.88;;;333.20;1740.80;;;;;;5093846;28;20081;-78
2021/04/23 03:13:03;;;;;;;21.40;14.60;;;333.20;1740.80;;;;;;5093433;28;20400;-78
2021/04/23 03:15:29;;;;;;;20.00;13.75;;;333.20;1715.20;;;;;;5093209;28;20060;-78
2021/04/23 03:17:55;;;;;;;21.25;13.05;;;333.20;1715.20;;;;;;5094596;28;20505;-78
2021/04/23 03:20:23;;;;;;;18.30;13.45;;;333.20;1715.20;;;;;;5093354;28;20020;-78
2021/04/23 03:22:49;;;;;;;23.17;14.40;;;333.10;1715.20;;;;;;5093730;28;20085;-78
2021/04/23 03:25:15;;;;;;;20.50;14.57;;;333.10;1689.60;;;;;;5093230;28;20405;-78
2021/04/23 03:27:43;;;;;;;19.70;13.43;;;333.10;1689.60;;;;;;5092733;28;20066;-78
2021/04/23 03:30:18;;;;;;;18.70;12.52;;;333.10;1689.60;;;;;;5094900;28;20032;-78
2021/04/23 03:32:44;;;;;;;21.45;14.15;;;333.00;1689.60;;;;;;5093389;28;20024;-79
2021/04/23 03:35:11;;;;;;;19.42;12.85;;;333.00;1689.60;;;;;;5094329;28;20077;-79
2021/04/23 03:37:38;;;;;;;19.02;13.38;;;333.00;1715.20;;;;;;5094098;28;20481;-79
2021/04/23 03:40:05;;;;;;;18.73;13.15;;;333.00;1715.20;;;;;;5093181;28;20039;-80
2021/04/23 03:42:31;;;;;;;22.80;13.93;;;333.00;1715.20;;;;;;5092410;28;20046;-79
2021/04/23 03:44:57;;;;;;;20.75;13.57;;;332.90;1740.80;;;;;;5092217;28;20552;-79
2021/04/23 03:47:23;;;;;;;18.05;13.98;;;332.90;1740.80;;;;;;5093331;28;20162;-78
2021/04/23 03:49:49;;;;;;;23.63;15.95;;;332.90;1740.80;;;;;;5092510;28;20401;-78
2021/04/23 03:52:16;;;;;;;25.27;14.80;;;333.00;1740.80;;;;;;5094364;28;20046;-78
2021/04/23 03:54:42;;;;;;;22.02;13.05;;;332.90;1740.80;;;;;;5092828;28;20020;-78
2021/04/23 03:57:09;;;;;;;19.27;12.75;;;332.90;1740.80;;;;;;5093779;28;20054;-79
2021/04/23 03:59:35;;;;;;;16.42;12.80;;;332.90;1740.80;;;;;;5094180;28;20020;-78
2021/04/23 04:02:00;;;;;;;28.77;12.27;;;332.80;1715.20;;;;;;5092774;28;20074;-79
2021/04/23 04:04:27;;;;;;;22.33;12.20;;;332.80;1740.80;;;;;;5093708;28;20036;-79
2021/04/23 04:06:52;;;;;;;18.02;12.95;;;332.80;1715.20;;;;;;5092790;28;20145;-78
2021/04/23 04:09:19;;;;;;;20.55;11.95;;;308.10;1689.60;;;;;;5093848;28;20814;-78
2021/04/23 04:11:45;;;;;;;15.77;11.35;;;308.10;1664.00;;;;;;5092693;28;20020;-79
2021/04/23 04:14:11;;;;;;;17.85;10.60;;;308.10;1664.00;;;;;;5093685;28;20024;-79
2021/04/23 04:16:37;;;;;;;17.20;11.32;;;308.10;1664.00;;;;;;5092479;28;20067;-78
2021/04/23 04:19:03;;;;;;;23.98;13.00;;;308.10;1664.00;;;;;;5093894;28;20389;-79
2021/04/23 04:21:29;;;;;;;22.92;13.10;;;308.10;1689.60;;;;;;5092655;28;20024;-79
2021/04/23 04:23:55;;;;;;;22.25;14.23;;;308.10;1715.20;;;;;;5092536;28;20024;-79
2021/04/23 04:26:21;;;;;;;21.95;13.40;;;308.10;1715.20;;;;;;5092361;28;20051;-78
2021/04/23 04:28:47;;;;;;;22.40;14.25;;;308.10;1740.80;;;;;;5092896;28;20481;-79
2021/04/23 04:31:13;;;;;;;19.50;14.52;;;308.10;1740.80;;;;;;5095776;28;20032;-78
2021/04/23 04:33:39;;;;;;;24.55;14.68;;;308.00;1766.40;;;;;;5092600;28;20105;-78
2021/04/23 04:36:06;;;;;;;20.13;14.85;;;308.10;1766.40;;;;;;5091463;28;20039;-78
2021/04/23 04:38:31;;;;;;;26.00;15.50;;;308.10;1740.80;;;;;;5093480;28;20044;-78
2021/04/23 04:40:58;;;;;;;24.38;17.00;;;308.00;1740.80;;;;;;5093484;28;20055;-78
2021/04/23 04:43:24;;;;;;;23.33;16.10;;;308.00;1766.40;;;;;;5092331;28;20074;-79
2021/04/23 04:45:50;;;;;;;23.52;15.63;;;308.10;1740.80;;;;;;5091589;28;20461;-79
2021/04/23 04:48:16;;;;;;;25.42;14.80;;;308.10;1715.20;;;;;;5091297;28;20044;-78
2021/04/23 04:50:47;;;;;;;26.35;14.95;;;332.80;1740.80;;;;;;5093334;28;20024;-78
2021/04/23 04:53:13;;;;;;;21.77;14.10;;;332.80;1740.80;;;;;;5093290;28;20028;-77
2021/04/23 04:55:43;;;;;;;22.02;14.52;;;332.80;1740.80;;;;;;5092196;28;20020;-78
2021/04/23 04:58:12;;;;;;;25.37;14.00;;;332.80;1740.80;;;;;;5092014;28;20111;-78
2021/04/23 05:00:39;;;;;;;24.45;13.98;;;332.80;1740.80;;;;;;5091154;28;20105;-78
2021/04/23 05:03:06;;;;;;;24.77;13.45;;;332.90;1715.20;;;;;;5091860;28;20024;-79
2021/04/23 05:05:33;;;;;;;19.52;13.30;;;308.10;1689.60;;;;;;5094428;28;20034;-78
2021/04/23 05:07:59;;;;;;;23.17;12.90;;;332.80;1715.20;;;;;;5095870;28;20024;-78
2021/04/23 05:10:25;;;;;;;20.55;12.30;;;332.80;1715.20;;;;;;5095233;28;20107;-78
2021/04/23 05:12:51;;;;;;;24.27;13.68;;;308.10;1689.60;;;;;;5095239;28;20111;-78
2021/04/23 05:15:19;;;;;;;22.08;12.55;;;308.10;1689.60;;;;;;5094936;28;20082;-79
2021/04/23 05:17:46;;;;;;;30.70;13.90;;;308.00;1689.60;;;;;;5092371;28;20032;-82
2021/04/23 05:20:14;;;;;;;26.70;15.93;;;307.90;1689.60;;;;;;5074459;28;20061;-79
2021/04/23 05:22:40;;;;;;;22.40;13.80;;;307.90;1689.60;;;;;;5074409;28;20048;-79
2021/04/23 05:25:11;;;;;;;20.75;12.20;;;307.90;1664.00;;;;;;5074595;28;20445;-80
2021/04/23 05:27:37;;;;;;;20.35;10.88;;;307.90;1664.00;;;;;;5075600;28;20043;-81
2021/04/23 05:30:11;;;;;;;17.70;11.30;;;307.90;1664.00;;;;;;5076588;28;20021;-80
2021/04/23 05:32:38;;;;;;;20.73;11.15;;;307.90;1638.40;;;;;;5076459;28;20031;-79
2021/04/23 05:35:06;;;;;;;20.77;11.10;;;308.00;1638.40;;;;;;5075364;28;20017;-80
2021/04/23 05:37:32;;;;;;;15.00;9.93;;;308.00;1612.80;;;;;;5092765;28;20030;-80
2021/04/23 05:39:58;;;;;;;22.00;9.85;;;308.00;1612.80;;;;;;5117616;28;20016;-80
2021/04/23 05:42:24;;;;;;;22.27;10.77;;;308.10;1587.20;;;;;;5116000;28;20115;-81
2021/04/23 05:44:50;;;;;;;18.58;9.57;;;308.10;1561.60;;;;;;5116189;28;20043;-80
2021/04/23 05:47:16;;;;;;;21.02;9.98;;;308.10;1536.00;;;;;;5114210;28;20031;-80
2021/04/23 05:49:42;;;;;;;17.15;9.48;;;308.10;1561.60;;;;;;5114722;28;20035;-80
2021/04/23 05:52:08;;;;;;;15.45;8.60;;;332.80;1561.60;;;;;;5114646;28;20118;-79
2021/04/23 05:54:35;;;;;;;14.63;7.57;;;332.90;1536.00;;;;;;5115821;27;20047;-81
2021/04/23 05:57:03;;;;;;;16.33;7.25;;;332.90;1561.60;;;;;;5114402;28;20024;-80
2021/04/23 05:59:29;;;;;;;15.80;7.40;;;332.90;1510.40;;;;;;5115562;28;20023;-80
2021/04/23 06:01:54;;;;;;;19.55;7.45;;;332.90;1510.40;;;;;;5114142;28;20046;-80
2021/04/23 06:04:20;;;;;;;14.90;7.53;;;332.90;1510.40;;;;;;5114441;28;20066;-80
2021/04/23 06:06:46;;;;;;;12.55;7.10;;;333.00;1510.40;;;;;;5114301;28;20192;-80
2021/04/23 06:09:12;;;;;;;19.23;7.50;;;333.00;1510.40;;;;;;5114149;28;20036;-80
2021/04/23 06:11:40;;;;;;;22.25;7.25;;;333.00;1484.80;;;;;;5113720;28;20090;-80
2021/04/23 06:14:06;;;;;;;12.50;7.05;;;333.10;1484.80;;;;;;5115658;28;20107;-81
2021/04/23 06:16:32;;;;;;;11.73;6.55;;;333.10;1459.20;;;;;;5113016;28;20028;-80
2021/04/23 06:18:58;;;;;;;18.08;7.30;;;333.10;1484.80;;;;;;5114123;28;20369;-80
2021/04/23 06:21:24;;;;;;;16.33;7.35;;;333.20;1459.20;;;;;;5113748;28;20028;-80
2021/04/23 06:23:51;;;;;;;16.17;7.38;;;333.20;1433.60;;;;;;5114074;28;20020;-80
2021/04/23 06:26:17;;;;;;;20.25;7.38;;;333.20;1433.60;;;;;;5113503;28;20085;-80
2021/04/23 06:28:45;;;;;;;17.67;7.05;;;333.30;1408.00;;;;;;5114963;27;20023;-80
2021/04/23 06:31:15;;;;;;;18.42;7.85;;;333.30;1408.00;;;;;;5114100;28;20477;-80
2021/04/23 06:33:46;;;;;;;;;;;333.40;1433.60;;;;;;5115451;28;20020;-80
2021/04/23 06:36:12;;;;;;;18.17;7.45;;;333.40;1408.00;;;;;;5148439;27;20365;-80
2021/04/23 06:38:38;;;;;;;15.70;6.43;;;333.40;1408.00;;;;;;5114593;28;20498;-81
2021/04/23 06:41:04;;;;;;;13.50;6.25;;;333.50;1408.00;;;;;;5113791;28;20046;-80
2021/04/23 06:43:30;;;;;;;8.88;6.80;;;333.50;1408.00;;;;;;5113005;28;20042;-80
2021/04/23 06:45:56;;;;;;;13.05;6.40;;;333.50;1382.40;;;;;;5112679;28;20048;-81
2021/04/23 06:48:22;;;;;;;11.40;6.32;;;333.60;1382.40;;;;;;5113686;28;20031;-80
2021/04/23 06:50:48;;;;;;;10.10;5.22;;;333.60;1356.80;;;;;;5113475;28;20045;-80
2021/04/23 06:53:14;;;;;;;21.08;6.70;;;333.70;1356.80;;;;;;5113431;28;20111;-80
2021/04/23 06:55:42;;;;;;;18.52;6.82;;;358.40;1382.40;;;;;;5113621;28;20015;-80
2021/04/23 06:58:08;;;;;;;14.75;6.68;;;358.40;1356.80;;;;;;5113482;28;20038;-80
2021/04/23 07:00:37;;;;;;;10.98;5.80;;;358.50;1356.80;;;;;;5113152;28;20465;-81
2021/04/23 07:03:03;;;;;;;15.93;8.00;;;358.50;1356.80;;;;;;5113537;28;20027;-80
2021/04/23 07:05:30;;;;;;;19.70;9.13;;;358.50;1356.80;;;;;;5096235;28;20499;-80
2021/04/23 07:07:56;;;;;;;22.58;8.60;;;358.60;1331.20;;;;;;5114700;28;20027;-80
2021/04/23 07:10:24;;;;;;;26.30;9.57;;;358.60;1356.80;;;;;;5117350;28;20025;-81
2021/04/23 07:12:51;;;;;;;20.77;9.77;;;358.70;1356.80;;;;;;5121491;28;20023;-80
2021/04/23 07:15:20;;;;;;;20.02;9.93;;;358.70;1356.80;;;;;;5113986;28;20043;-80
2021/04/23 07:17:47;;;;;;;21.33;8.77;;;358.70;1331.20;;;;;;5112000;28;20023;-81
2021/04/23 07:20:14;;;;;;;24.05;8.88;;;358.70;1331.20;;;;;;5112976;28;20023;-85
2021/04/23 07:22:40;;;;;;;21.70;9.07;;;358.80;1331.20;;;;;;5114792;28;20055;-84
2021/04/23 07:25:07;;;;;;;20.33;8.85;;;358.90;1331.20;;;;;;5114968;28;20477;-84
2021/04/23 07:27:37;;;;;;;16.60;7.78;;;358.90;1331.20;;;;;;5114765;28;20027;-84
2021/04/23 07:30:11;;;;;;;20.10;7.90;;;359.00;1331.20;;;;;;5114941;28;20027;-84
2021/04/23 07:32:37;;;;;;;20.20;8.80;;;359.00;1305.60;;;;;;5114646;28;20036;-84
2021/04/23 07:35:03;;;;;;;15.27;8.48;;;359.10;1331.20;;;;;;5114647;28;20020;-84
2021/04/23 07:37:29;;;;;;;26.20;9.95;;;359.00;1305.60;;;;;;5114599;28;20469;-84
2021/04/23 07:39:55;;;;;;;17.15;8.10;;;359.10;1305.60;;;;;;5114603;28;20024;-84
2021/04/23 07:42:20;;;;;;;18.67;9.10;;;359.20;1305.60;;;;;;5114713;28;20020;-85
2021/04/23 07:44:46;;;;;;;16.38;8.02;;;359.20;1331.20;;;;;;5114420;28;20031;-84
2021/04/23 07:47:12;;;;;;;18.13;8.32;;;359.30;1305.60;;;;;;5114554;28;20032;-84
2021/04/23 07:49:38;;;;;;;15.45;7.00;;;359.30;1305.60;;;;;;5114023;28;20032;-83
2021/04/23 07:52:04;;;;;;;17.15;8.77;;;359.30;1280.00;;;;;;5114094;28;20027;-84
2021/04/23 07:54:31;;;;;;;11.52;7.22;;;384.00;1305.60;;;;;;5114446;28;20377;-84
2021/04/23 07:56:56;;;;;;;14.65;6.93;;;384.00;1254.40;;;;;;5114371;28;20031;-85
2021/04/23 07:59:22;;;;;;;14.30;6.68;;;384.00;1280.00;;;;;;5114157;28;20020;-84
2021/04/23 08:01:51;;;;;;;20.15;8.10;;;384.10;1280.00;;;;;;5114269;28;20020;-85
2021/04/23 08:04:17;;;;;;;17.15;8.40;;;384.10;1254.40;;;;;;5114376;28;20032;-85
2021/04/23 08:06:43;;;;;;;17.25;6.93;;;384.10;1280.00;;;;;;5114476;28;20023;-84
2021/04/23 08:09:09;;;;;;;14.20;6.95;;;384.20;1254.40;;;;;;5114367;28;20065;-85
2021/04/23 08:11:34;;;;;;;18.70;8.65;;;384.20;1280.00;;;;;;5114144;28;21978;-84
2021/04/23 08:14:00;;;;;;;14.75;8.55;;;384.30;1254.40;;;;;;5114443;28;20023;-84
2021/04/23 08:16:26;;;;;;;18.35;9.15;;;384.30;1254.40;;;;;;5114358;28;20027;-84
2021/04/23 08:18:53;;;;;;;17.75;11.82;;;384.40;1254.40;;;;;;5114214;28;20492;-86
2021/04/23 08:21:20;;;;;;;9.30;7.82;;;384.50;1254.40;;;;;;5113996;28;20060;-85
2021/04/23 08:23:47;;;;;;;16.27;7.80;;;384.50;1254.40;;;;;;5113597;28;20027;-84
2021/04/23 08:26:17;;;;;;;13.98;7.38;;;384.60;1280.00;;;;;;5114112;28;20028;-85
2021/04/23 08:28:42;;;;;;;11.98;7.40;;;384.70;1203.20;;;;;;5113446;28;20048;-85
2021/04/23 08:31:08;;;;;;;12.45;7.57;;;384.70;1254.40;;;;;;5113702;28;20024;-85
2021/04/23 08:33:34;;;;;;;17.40;7.40;;;384.90;1254.40;;;;;;5113500;28;20115;-85
2021/04/23 08:36:00;;;;;;;16.55;7.70;;;384.90;1254.40;;;;;;5112915;28;20051;-85
2021/04/23 08:38:26;;;;;;;16.88;6.43;;;384.90;1254.40;;;;;;5113573;28;20020;-85
2021/04/23 08:40:53;;;;;;;14.38;8.10;;;409.60;1228.80;;;;;;5112693;28;20062;-85
2021/04/23 08:43:19;;;;;;;21.40;9.00;;;409.60;1228.80;;;;;;5113379;28;20058;-85
2021/04/23 08:45:45;;;;;;;17.75;7.20;;;409.60;1228.80;;;;;;5113444;28;20075;-84
2021/04/23 08:48:11;;;;;;;18.60;6.40;;;409.70;1254.40;;;;;;5113574;28;20053;-85
2021/04/23 08:50:38;;;;;;;18.98;7.30;;;409.80;1254.40;;;;;;5113755;28;20059;-85
2021/04/23 08:53:04;;;;;;;9.82;6.93;;;409.90;1228.80;;;;;;5113438;28;20023;-84
2021/04/23 08:55:30;;;;;;;14.45;7.28;;;409.90;1203.20;;;;;;5113518;28;20024;-84
2021/04/23 08:57:56;;;;;;;20.85;8.40;;;409.90;1228.80;;;;;;5113562;28;20027;-84
2021/04/23 09:00:22;;;;;;;23.15;8.95;;;409.90;1228.80;;;;;;5113449;28;20020;-85
2021/04/23 09:02:48;;;;;;;15.07;6.65;;;409.90;1228.80;;;;;;5113438;28;20110;-84
2021/04/23 09:05:16;;;;;;;25.00;7.75;;;410.10;1228.80;;;;;;5112665;28;20067;-85
2021/04/23 09:07:56;;;;;;;12.98;7.40;;;410.10;1203.20;;;;;;5113449;28;20031;-84
2021/04/23 09:10:22;;;;;;;;;;;410.10;1203.20;;;;;;5113984;28;20107;-84
2021/04/23 09:13:13;;;;;;;24.23;8.32;;;410.20;1203.20;;;;;;5147727;27;20360;-85
2021/04/23 09:15:42;;;;;;;15.68;7.82;;;410.20;1228.80;;;;;;5113560;28;20024;-84
2021/04/23 09:18:17;;;;;;;12.88;7.15;;;410.30;1228.80;;;;;;5113019;28;20067;-85
2021/04/23 09:20:49;;;;;;;13.05;6.82;;;410.40;1203.20;;;;;;5112745;28;20080;-85
2021/04/23 09:23:22;;;;;;;14.25;7.15;;;410.40;1203.20;;;;;;5113321;28;20028;-85
2021/04/23 09:25:51;;;;;;;15.38;6.80;;;410.50;1228.80;;;;;;5113711;28;20097;-83
2021/04/23 09:28:39;;;;;;;12.60;7.38;;;435.20;1177.60;;;;;;5112956;28;20123;-81
2021/04/23 09:31:30;;;;;;;17.67;8.07;;;435.20;1177.60;;;;;;5113045;28;20024;-82
2021/04/23 09:33:58;;;;;;;14.70;8.38;;;435.30;1177.60;;;;;;5112750;28;20073;-81
2021/04/23 09:36:40;;;;;;;14.63;6.53;;;435.30;1177.60;;;;;;5112714;28;20024;-82
2021/04/23 09:39:09;;;;;;;10.05;5.47;;;435.40;1177.60;;;;;;5096564;28;20081;-82
2021/04/23 09:41:36;;;;;;;15.43;7.00;;;435.50;1152.00;;;;;;5112847;28;20023;-82
2021/04/23 09:44:02;;;;;;;13.57;6.57;;;435.50;1152.00;;;;;;5113596;28;20023;-82
2021/04/23 09:46:36;;;;;;;10.68;5.28;;;435.50;1126.40;;;;;;5112539;28;20082;-82
2021/04/23 09:49:19;;;;;;;8.43;5.38;;;435.60;1152.00;;;;;;5112761;28;20019;-80
2021/04/23 09:51:46;;;;;;;11.80;5.55;;;435.60;1100.80;;;;;;5116465;28;20020;-80
2021/04/23 09:54:13;;;;;;;10.25;5.35;;;435.60;1100.80;;;;;;5121501;28;20031;-80
2021/04/23 09:56:39;;;;;;;12.55;5.03;;;435.60;1126.40;;;;;;5115343;28;20031;-81
2021/04/23 09:59:14;;;;;;;10.90;4.70;;;435.70;1126.40;;;;;;5115864;28;20019;-81
2021/04/23 10:02:10;;;;;;;14.18;4.82;;;435.80;1075.20;;;;;;5115826;28;20073;-80
2021/04/23 10:04:36;;;;;;;8.80;4.15;;;435.80;1100.80;;;;;;5098653;28;20032;-81
2021/04/23 10:07:17;;;;;;;8.95;4.10;;;435.90;1075.20;;;;;;5114994;28;20042;-80
2021/04/23 10:10:06;;;;;;;9.80;4.60;;;435.90;1075.20;;;;;;5115874;28;20031;-81
2021/04/23 10:12:38;;;;;;;14.98;5.13;;;436.00;1100.80;;;;;;5116941;27;20034;-82
2021/04/23 10:15:18;;;;;;;15.70;5.40;;;436.10;1049.60;;;;;;5116121;28;20032;-85
2021/04/23 10:17:48;;;;;;;10.80;5.65;;;436.10;1049.60;;;;;;5115492;28;20023;-82
2021/04/23 10:20:20;;;;;;;13.93;5.50;;;460.80;1100.80;;;;;;5115673;28;20027;-82
2021/04/23 10:22:46;;;;;;;13.80;5.50;;;460.80;1075.20;;;;;;5115633;28;20061;-84
2021/04/23 10:25:13;;;;;;;16.23;6.05;;;460.80;1126.40;;;;;;5115417;28;20055;-82
2021/04/23 10:27:42;;;;;;;9.02;4.97;;;460.80;1100.80;;;;;;5116435;28;20473;-84
2021/04/23 10:30:20;;;;;;;20.13;7.40;;;460.80;1100.80;;;;;;5115513;28;20028;-82
2021/04/23 10:32:50;;;;;;;9.98;4.57;;;460.80;1100.80;;;;;;5115232;28;20042;-83
2021/04/23 10:35:17;;;;;;;7.70;4.53;;;460.80;1075.20;;;;;;5116671;28;20016;-83
2021/04/23 10:37:44;;;;;;;10.07;4.10;;;460.80;1075.20;;;;;;5115631;28;20015;-83
2021/04/23 10:40:12;;;;;;;8.07;5.00;;;460.90;1100.80;;;;;;5115398;28;20477;-85
2021/04/23 10:42:56;;;;;;;6.55;4.55;;;460.90;1100.80;;;;;;5114262;28;20085;-82
2021/04/23 10:45:36;;;;;;;8.25;4.45;;;461.00;1100.80;;;;;;5115224;28;20043;-84
2021/04/23 10:48:24;;;;;;;10.07;5.85;;;461.00;1126.40;;;;;;5115512;28;20035;-83
2021/04/23 10:51:03;;;;;;;11.15;5.28;;;461.20;1100.80;;;;;;5114341;28;20484;-83
2021/04/23 10:53:28;;;;;;;9.60;4.60;;;461.20;1075.20;;;;;;5114599;28;20058;-84
2021/04/23 10:55:56;;;;;;;6.63;5.15;;;461.30;1075.20;;;;;;5114308;28;20059;-84
2021/04/23 10:58:28;;;;;;;9.80;4.75;;;461.30;1100.80;;;;;;5113576;28;20030;-84
2021/04/23 11:00:59;;;;;;;8.65;3.58;;;461.20;1100.80;;;;;;5115322;28;20015;-84
2021/04/23 11:03:35;;;;;;;10.43;5.07;;;461.20;1075.20;;;;;;5113341;28;20055;-83
2021/04/23 11:06:04;;;;;;;10.85;5.03;;;461.30;1075.20;;;;;;5113241;28;20097;-84
2021/04/23 11:08:59;;;;;;;10.10;5.13;;;461.50;1100.80;;;;;;5113801;28;20023;-83
2021/04/23 11:11:30;;;;;;;10.20;4.28;;;461.40;972.80;;;;;;5113350;28;20279;-83
2021/04/23 11:14:21;;;;;;;9.82;4.13;;;461.40;1049.60;;;;;;5114679;28;20027;-83
2021/04/23 11:16:47;;;;;;;10.25;3.45;;;461.50;1049.60;;;;;;5112969;28;20035;-84
2021/04/23 11:19:19;;;;;;;15.75;4.35;;;461.60;1024.00;;;;;;5112707;28;20476;-84
2021/04/23 11:21:49;;;;;;;11.35;4.97;;;461.50;972.80;;;;;;5113392;28;20054;-84
2021/04/23 11:24:28;;;;;;;6.50;3.00;;;461.50;972.80;;;;;;5112883;28;20067;-83
2021/04/23 11:29:26;;;;;;;3.70;2.63;;;461.60;1024.00;;;;;;5114628;28;20392;-84
2021/04/23 11:32:07;;;;;;;8.27;3.60;;;461.70;1024.00;;;;;;5114305;28;20473;-83
2021/04/23 11:34:36;;;;;;;14.73;4.20;;;486.40;998.40;;;;;;5113138;28;20023;-84
2021/04/23 11:37:05;;;;;;;10.07;3.70;;;486.40;972.80;;;;;;5113683;28;20019;-84
2021/04/23 11:39:33;;;;;;;11.65;3.90;;;461.70;972.80;;;;;;5113358;28;20130;-83
2021/04/23 11:42:18;;;;;;;10.70;3.92;;;486.40;998.40;;;;;;5112453;28;20036;-83
2021/04/23 11:45:26;;;;;;;9.43;3.55;;;486.50;972.80;;;;;;5113432;28;20027;-83
2021/04/23 11:47:56;;;;;;;6.85;3.78;;;486.50;998.40;;;;;;5052166;28;20091;-83
2021/04/23 11:50:25;;;;;;;5.72;3.10;;;486.50;947.20;;;;;;5049338;28;20039;-83
2021/04/23 11:52:53;;;;;;;8.65;3.50;;;486.50;972.80;;;;;;5113974;28;20045;-83
2021/04/23 11:55:20;;;;;;;9.57;4.25;;;486.60;947.20;;;;;;5112578;28;20015;-83
2021/04/23 11:57:49;;;;;;;12.30;3.63;;;486.70;947.20;;;;;;5113252;28;20016;-83
2021/04/23 12:00:22;;;;;;;10.15;3.65;;;486.70;844.80;;;;;;5112574;28;20035;-83
2021/04/23 12:02:57;;;;;;;12.70;3.70;;;486.70;972.80;;;;;;5113903;28;20047;-83
2021/04/23 12:05:27;;;;;;;4.75;2.97;;;486.90;972.80;;;;;;5113671;28;20026;-83
2021/04/23 12:07:54;;;;;;;8.32;3.15;;;487.00;921.60;;;;;;5112375;28;20114;-83
2021/04/23 12:10:26;;;;;;;11.85;3.72;;;487.00;947.20;;;;;;5112595;28;20034;-83
2021/04/23 12:12:52;;;;;;;7.53;3.53;;;487.00;921.60;;;;;;5112155;28;20078;-84
2021/04/23 12:15:32;;;;;;;13.38;4.28;;;487.00;921.60;;;;;;5094499;28;20062;-83
2021/04/23 12:18:00;;;;;;;11.23;4.22;;;487.10;870.40;;;;;;5113441;28;20521;-84